Johannesburg, South Africa
Current Conditions -  °F | °C
As of 6:00 PM on Sunday 23 Nov 2014 (Local Time) from FAOR Reporting Station
Clear Clear  
Wind Chill: 19°   Ceiling: Unl
Heat Index: 19°   Visibility: 6mi
Dew Point:   Wind: 15mph
Humidity: 52%   Direction: 330°NNW
Pressure: 30.21"   Gusts: NA
Location:  26.19°S, 28.04°E
Report Text: FAOR 231600Z 33013KT CAVOK 19/09 Q1023 NOSIG
Loading
Personal Weather Stations






























Interactive Weather Map New forecast layout! Learn more

10-Day Weather Forecast

Advertisements
Track Severe Weather on mobile